Knut M — LK5088 — position and weather

sailwx.info

Track history (hours):
 
Tides and Currents Weather Stations Pressure Air Temp Water Temp Dewpoint Dewpoint Depression Visibility Wind Speed Wind Dir Waves Ship Positions

Knut M

Last reported at 2018-Jan-31 22:56 UTC. Time now 2018-Feb-23 10:42 UTC.
Position N 70°26' E 022°23'.
Warning: this ship's position is 22 days out of date.

Length 14 m.

Type: Fishing. MMSI: 257039740.

Date/timePositionNaut miles runAvg speedWind from/ knotsBaromVisibWave heightAir tempDewpointWater temp
2018-Jan-31 22:56N 70°26' E 022°23'4 8.3
2018-Jan-31 22:30N 70°25' E 022°34'25 0.6
2018-Jan-30 03:25N 70°38' E 023°37'2 4.6
2018-Jan-30 02:56N 70°40' E 023°41'0 0.0
2018-Jan-30 02:26N 70°40' E 023°41'0 0.0
2018-Jan-30 01:50N 70°40' E 023°41'0 0.0
2018-Jan-30 01:20N 70°40' E 023°41'0 0.0
2018-Jan-30 00:56N 70°40' E 023°41'0 0.0
2018-Jan-30 00:26N 70°40' E 023°41'0 0.0
2018-Jan-29 23:56N 70°40' E 023°41'0 0.0
2018-Jan-29 23:26N 70°40' E 023°41'0 0.0
2018-Jan-29 22:44N 70°40' E 023°41'0 1.5
2018-Jan-29 22:25N 70°40' E 023°40'0 0.0
2018-Jan-29 21:53N 70°40' E 023°40'3 7.4
2018-Jan-29 21:30N 70°39' E 023°32'  
Track history (hours):
 
Tides and Currents Weather Stations Pressure Air Temp Water Temp Dewpoint Dewpoint Depression Visibility Wind Speed Wind Dir Waves Ship Positions

Knut M

Last reported at 2018-Jan-31 22:56 UTC. Time now 2018-Feb-23 10:42 UTC.
Position N 70°26' E 022°23'.
Warning: this ship's position is 22 days out of date.

Length 14 m.

Type: Fishing. MMSI: 257039740.

Date/timePositionNaut miles runAvg speedWind from/ knotsBaromVisibWave heightAir tempDewpointWater temp
2018-Jan-31 22:56N 70°26' E 022°23'4 8.3
2018-Jan-31 22:30N 70°25' E 022°34'25 0.6
2018-Jan-30 03:25N 70°38' E 023°37'2 4.6
2018-Jan-30 02:56N 70°40' E 023°41'0 0.0
2018-Jan-30 02:26N 70°40' E 023°41'0 0.0
2018-Jan-30 01:50N 70°40' E 023°41'0 0.0
2018-Jan-30 01:20N 70°40' E 023°41'0 0.0
2018-Jan-30 00:56N 70°40' E 023°41'0 0.0
2018-Jan-30 00:26N 70°40' E 023°41'0 0.0
2018-Jan-29 23:56N 70°40' E 023°41'0 0.0
2018-Jan-29 23:26N 70°40' E 023°41'0 0.0
2018-Jan-29 22:44N 70°40' E 023°41'0 1.5
2018-Jan-29 22:25N 70°40' E 023°40'0 0.0
2018-Jan-29 21:53N 70°40' E 023°40'3 7.4
2018-Jan-29 21:30N 70°39' E 023°32'  

Dump ship's entire track history